Time;durP1;ratioP1;P1;durP2;ratioP2;P2;SDS_P1;SDS_P2;PMS_P1;PMS_P2;Temp;Humidity;BMP_temperature;BMP_pressure;BME280_temperature;BME280_humidity;BME280_pressure;Samples;Min_cycle;Max_cycle;Signal;HPM_P1;HPM_P2
2023/12/13 00:00:07;;;;;;;21.05;13.02;;;8.60;99.90;;;;;;5055294;28;20491;-82
2023/12/13 00:02:39;;;;;;;19.20;11.32;;;8.60;99.90;;;;;;5065577;28;20389;-81
2023/12/13 00:05:06;;;;;;;16.55;9.77;;;8.60;99.90;;;;;;5069371;28;20042;-80
2023/12/13 00:07:32;;;;;;;16.88;11.02;;;8.60;99.90;;;;;;5053452;28;20781;-81
2023/12/13 00:09:58;;;;;;;19.20;9.98;;;8.50;99.90;;;;;;5089238;28;20036;-80
2023/12/13 00:12:25;;;;;;;15.48;9.75;;;8.50;99.90;;;;;;5090974;28;20058;-81
2023/12/13 00:14:51;;;;;;;12.90;8.85;;;8.50;99.90;;;;;;5074547;28;20497;-82
2023/12/13 00:17:18;;;;;;;13.10;8.52;;;8.50;99.90;;;;;;5050635;28;20039;-81
2023/12/13 00:19:44;;;;;;;15.52;8.85;;;8.40;99.90;;;;;;5085603;28;20047;-82
2023/12/13 00:22:10;;;;;;;14.13;8.65;;;8.50;99.90;;;;;;5072151;28;20281;-79
2023/12/13 00:24:37;;;;;;;12.10;8.15;;;8.40;99.90;;;;;;5089500;28;20032;-82
2023/12/13 00:27:03;;;;;;;13.57;8.27;;;8.40;99.90;;;;;;5089909;28;20028;-80
2023/12/13 00:29:30;;;;;;;16.55;9.48;;;8.40;99.90;;;;;;5090488;28;20032;-80
2023/12/13 00:31:56;;;;;;;15.60;8.95;;;8.30;99.90;;;;;;5092594;28;20377;-81
2023/12/13 00:34:22;;;;;;;14.00;8.82;;;8.30;99.90;;;;;;5062915;28;20394;-83
2023/12/13 00:36:48;;;;;;;13.80;8.57;;;8.30;99.90;;;;;;5096992;27;20035;-82
2023/12/13 00:39:16;;;;;;;12.98;7.78;;;8.30;99.90;;;;;;5100811;28;20054;-81
2023/12/13 00:41:42;;;;;;;16.08;8.88;;;8.40;99.90;;;;;;5099748;27;20034;-82
2023/12/13 00:44:08;;;;;;;13.10;8.35;;;8.40;99.90;;;;;;5058929;28;20114;-82
2023/12/13 00:46:34;;;;;;;13.80;7.63;;;8.40;99.90;;;;;;5071491;28;20047;-80
2023/12/13 00:49:01;;;;;;;13.50;8.27;;;8.50;99.90;;;;;;5073397;28;20498;-84
2023/12/13 00:51:27;;;;;;;11.15;7.25;;;8.50;99.90;;;;;;5082361;28;20436;-82
2023/12/13 00:53:53;;;;;;;13.73;7.25;;;8.50;99.90;;;;;;5096713;27;20028;-81
2023/12/13 00:56:20;;;;;;;13.88;9.30;;;8.50;99.90;;;;;;5095584;28;20493;-80
2023/12/13 00:58:47;;;;;;;11.10;7.47;;;8.60;99.90;;;;;;5078506;28;20036;-83
2023/12/13 01:01:14;;;;;;;11.63;7.55;;;8.60;99.90;;;;;;5085783;28;20047;-82
2023/12/13 01:03:40;;;;;;;16.85;9.55;;;8.60;99.90;;;;;;5079285;28;20475;-81
2023/12/13 01:06:09;;;;;;;20.08;10.60;;;8.60;99.90;;;;;;5094978;28;20039;-80
2023/12/13 01:08:38;;;;;;;16.13;9.95;;;8.60;99.90;;;;;;5056573;28;20036;-81
2023/12/13 01:11:09;;;;;;;15.50;8.75;;;8.60;99.90;;;;;;5060839;28;20040;-81
2023/12/13 01:13:37;;;;;;;13.40;7.72;;;8.60;99.90;;;;;;5065510;28;20589;-81
2023/12/13 01:16:03;;;;;;;15.63;9.30;;;8.60;99.90;;;;;;5070903;28;20437;-81
2023/12/13 01:18:29;;;;;;;17.05;8.65;;;8.60;99.90;;;;;;5071305;28;20490;-80
2023/12/13 01:20:56;;;;;;;15.05;8.05;;;8.50;99.90;;;;;;5078151;28;20028;-81
2023/12/13 01:23:22;;;;;;;11.45;7.72;;;8.50;99.90;;;;;;5073582;28;20597;-80
2023/12/13 01:25:49;;;;;;;9.27;6.80;;;8.50;99.90;;;;;;5073860;28;20039;-82
2023/12/13 01:28:15;;;;;;;9.75;6.13;;;8.50;99.90;;;;;;5075951;28;20616;-80
2023/12/13 01:30:41;;;;;;;10.65;5.97;;;8.40;99.90;;;;;;5093418;28;20042;-81
2023/12/13 01:33:08;;;;;;;10.82;6.40;;;8.40;99.90;;;;;;5073714;28;20032;-82
2023/12/13 01:35:34;;;;;;;9.93;5.57;;;8.40;99.90;;;;;;5081454;28;20429;-81
2023/12/13 01:38:00;;;;;;;15.95;8.75;;;8.40;99.90;;;;;;5092519;28;20057;-81
2023/12/13 01:40:27;;;;;;;12.43;7.72;;;8.50;99.90;;;;;;5081918;28;20045;-82
2023/12/13 01:42:53;;;;;;;11.48;6.78;;;8.40;99.90;;;;;;5073877;28;20051;-80
2023/12/13 01:45:19;;;;;;;13.77;7.43;;;8.50;99.90;;;;;;5054960;28;20055;-80
2023/12/13 01:47:46;;;;;;;11.90;7.38;;;8.50;99.90;;;;;;5072903;28;20039;-81
2023/12/13 01:50:12;;;;;;;10.75;7.03;;;8.50;99.90;;;;;;5058418;28;20050;-81
2023/12/13 01:52:38;;;;;;;10.77;6.55;;;8.50;99.90;;;;;;5061767;28;20035;-81
2023/12/13 01:55:07;;;;;;;12.77;5.75;;;8.50;99.90;;;;;;5061610;28;20047;-79
2023/12/13 01:57:35;;;;;;;17.50;8.30;;;8.50;99.90;;;;;;5077989;28;20042;-81
2023/12/13 02:00:01;;;;;;;11.02;6.07;;;8.50;99.90;;;;;;5074562;28;20391;-81
2023/12/13 02:02:28;;;;;;;10.48;5.35;;;8.60;99.90;;;;;;5056896;28;20036;-82
2023/12/13 02:04:55;;;;;;;10.00;5.68;;;8.60;99.90;;;;;;5094486;28;20035;-81
2023/12/13 02:07:22;;;;;;;11.15;5.80;;;8.60;99.90;;;;;;5067257;28;20032;-81
2023/12/13 02:09:48;;;;;;;10.05;4.80;;;8.60;99.90;;;;;;5089079;28;20450;-81
2023/12/13 02:12:14;;;;;;;12.30;6.38;;;8.60;99.90;;;;;;5077210;28;20454;-80
2023/12/13 02:14:41;;;;;;;12.48;5.32;;;8.60;99.90;;;;;;5074155;28;20058;-79
2023/12/13 02:17:07;;;;;;;8.10;4.90;;;8.60;99.90;;;;;;5084718;28;20042;-81
2023/12/13 02:19:36;;;;;;;10.43;4.80;;;8.70;99.90;;;;;;5092532;28;20047;-81
2023/12/13 02:22:07;;;;;;;8.95;5.10;;;8.70;99.90;;;;;;5071961;28;20040;-81
2023/12/13 02:24:37;;;;;;;8.82;4.68;;;8.60;99.90;;;;;;5108215;27;20032;-81
2023/12/13 02:27:03;;;;;;;7.65;3.97;;;8.70;99.90;;;;;;5092588;27;20505;-81
2023/12/13 02:29:30;;;;;;;9.07;4.90;;;8.60;99.90;;;;;;5078437;28;20032;-81
2023/12/13 02:31:56;;;;;;;6.78;3.95;;;8.60;99.90;;;;;;5053367;28;20028;-81
2023/12/13 02:34:23;;;;;;;7.60;4.25;;;8.70;99.90;;;;;;5064049;28;20042;-81
2023/12/13 02:36:49;;;;;;;8.52;4.43;;;8.60;99.90;;;;;;5077973;28;20032;-82
2023/12/13 02:39:16;;;;;;;8.43;3.90;;;8.60;99.90;;;;;;5058767;28;20036;-78
2023/12/13 02:41:42;;;;;;;9.48;4.60;;;8.60;99.90;;;;;;5079094;28;20469;-82
2023/12/13 02:44:08;;;;;;;7.07;3.70;;;8.60;99.90;;;;;;5073342;28;20043;-81
2023/12/13 02:46:35;;;;;;;8.00;4.43;;;8.60;99.90;;;;;;5073094;28;20035;-81
2023/12/13 02:49:01;;;;;;;7.85;4.43;;;8.70;99.90;;;;;;5072262;28;20048;-81
2023/12/13 02:51:27;;;;;;;10.45;4.85;;;8.60;99.90;;;;;;5070262;28;20398;-81
2023/12/13 02:53:53;;;;;;;9.02;4.28;;;8.60;99.90;;;;;;5078691;28;20028;-81
2023/12/13 02:56:20;;;;;;;7.28;3.70;;;8.60;99.90;;;;;;5094166;27;20034;-81
2023/12/13 02:58:46;;;;;;;9.80;4.40;;;8.70;99.90;;;;;;5066049;28;20058;-81
2023/12/13 03:01:12;;;;;;;7.05;3.85;;;8.60;99.90;;;;;;5091401;28;20039;-81
2023/12/13 03:03:39;;;;;;;5.25;3.03;;;8.60;99.90;;;;;;5091775;28;20043;-81
2023/12/13 03:06:05;;;;;;;6.55;4.22;;;8.60;99.90;;;;;;5078044;28;20032;-82
2023/12/13 03:08:32;;;;;;;7.30;3.72;;;8.70;99.90;;;;;;5089381;28;20047;-81
2023/12/13 03:10:58;;;;;;;6.28;3.25;;;8.60;99.90;;;;;;5083279;28;20032;-82
2023/12/13 03:13:25;;;;;;;5.47;2.78;;;8.70;99.90;;;;;;5076531;28;20046;-81
2023/12/13 03:15:52;;;;;;;7.47;3.67;;;8.70;99.90;;;;;;5071962;28;20399;-81
2023/12/13 03:18:18;;;;;;;6.53;3.25;;;8.70;99.90;;;;;;5070625;28;20051;-81
2023/12/13 03:20:44;;;;;;;6.32;3.40;;;8.70;99.90;;;;;;5073932;28;20032;-80
2023/12/13 03:23:10;;;;;;;6.10;3.45;;;8.70;99.90;;;;;;5079852;28;20036;-81
2023/12/13 03:25:37;;;;;;;4.28;2.97;;;8.70;99.90;;;;;;5077085;28;20024;-81
2023/12/13 03:28:03;;;;;;;5.55;2.97;;;8.70;99.90;;;;;;5079483;28;20036;-81
2023/12/13 03:30:29;;;;;;;6.03;2.67;;;8.70;99.90;;;;;;5086374;28;20826;-82
2023/12/13 03:32:56;;;;;;;7.93;3.95;;;8.70;99.90;;;;;;5075324;28;20031;-82
2023/12/13 03:35:22;;;;;;;5.30;2.67;;;8.70;99.90;;;;;;5086812;28;20038;-82
2023/12/13 03:37:49;;;;;;;6.93;3.40;;;8.70;99.90;;;;;;5071481;28;20067;-81
2023/12/13 03:40:15;;;;;;;9.68;3.65;;;8.70;99.90;;;;;;5073961;28;20043;-82
2023/12/13 03:42:41;;;;;;;11.73;4.55;;;8.70;99.90;;;;;;5078822;28;20028;-81
2023/12/13 03:45:08;;;;;;;10.43;5.10;;;8.70;99.90;;;;;;5071053;28;20036;-81
2023/12/13 03:47:34;;;;;;;8.82;4.22;;;8.70;99.90;;;;;;5072691;28;20035;-81
2023/12/13 03:50:00;;;;;;;10.35;4.63;;;8.70;99.90;;;;;;5075797;28;20406;-80
2023/12/13 03:52:27;;;;;;;7.05;4.03;;;8.70;99.90;;;;;;5071815;28;20035;-81
2023/12/13 03:54:53;;;;;;;10.85;5.10;;;8.70;99.90;;;;;;5062021;28;20478;-81
2023/12/13 03:57:19;;;;;;;8.88;5.07;;;8.70;99.90;;;;;;5072130;28;20036;-80
2023/12/13 03:59:45;;;;;;;10.80;5.35;;;8.70;99.90;;;;;;5093558;28;20042;-80
2023/12/13 04:02:12;;;;;;;9.13;4.97;;;8.70;99.90;;;;;;5089188;28;20345;-79
2023/12/13 04:04:38;;;;;;;9.45;5.78;;;8.70;99.90;;;;;;5068887;28;20028;-81
2023/12/13 04:07:08;;;;;;;8.45;5.00;;;8.70;99.90;;;;;;5070775;28;20031;-81
2023/12/13 04:09:34;;;;;;;14.82;6.57;;;8.70;99.90;;;;;;5054780;28;20035;-81
2023/12/13 04:12:02;;;;;;;10.95;6.65;;;8.70;99.90;;;;;;5078056;28;20494;-82
2023/12/13 04:14:28;;;;;;;12.27;7.05;;;8.70;99.90;;;;;;5055802;28;20035;-82
2023/12/13 04:16:54;;;;;;;10.63;6.28;;;8.70;99.90;;;;;;5079027;28;20036;-82
2023/12/13 04:19:21;;;;;;;9.50;5.93;;;8.70;99.90;;;;;;5082648;28;20027;-82
2023/12/13 04:21:47;;;;;;;15.73;7.45;;;8.80;99.90;;;;;;5077907;28;20038;-82
2023/12/13 04:24:13;;;;;;;15.95;8.18;;;8.70;99.90;;;;;;5079756;28;20042;-81
2023/12/13 04:26:40;;;;;;;13.75;7.57;;;8.80;99.90;;;;;;5076377;28;20668;-80
2023/12/13 04:29:06;;;;;;;15.63;8.50;;;8.80;99.90;;;;;;5081410;28;20474;-81
2023/12/13 04:31:33;;;;;;;15.73;9.05;;;8.80;99.90;;;;;;5079970;28;20051;-80
2023/12/13 04:33:59;;;;;;;25.65;12.75;;;8.70;99.90;;;;;;5079834;28;20032;-80
2023/12/13 04:36:25;;;;;;;18.35;10.18;;;8.70;99.90;;;;;;5096204;27;20028;-80
2023/12/13 04:38:52;;;;;;;16.27;8.85;;;8.80;99.90;;;;;;5050750;28;20043;-80
2023/12/13 04:41:18;;;;;;;17.52;10.45;;;8.80;99.90;;;;;;5073172;28;20051;-81
2023/12/13 04:43:44;;;;;;;17.98;9.98;;;8.80;99.90;;;;;;5075824;28;20036;-79
2023/12/13 04:46:11;;;;;;;18.77;10.63;;;8.80;99.90;;;;;;5111526;27;20032;-81
2023/12/13 04:48:37;;;;;;;20.63;10.05;;;8.80;99.90;;;;;;5081127;28;20039;-80
2023/12/13 04:51:04;;;;;;;20.75;11.98;;;8.80;99.90;;;;;;5082173;28;20044;-80
2023/12/13 04:53:30;;;;;;;18.90;10.82;;;8.80;99.90;;;;;;5063182;28;20039;-80
2023/12/13 04:55:56;;;;;;;20.13;10.68;;;8.80;99.90;;;;;;5079699;28;20367;-81
2023/12/13 04:58:23;;;;;;;19.30;10.43;;;8.80;99.90;;;;;;5075144;28;20043;-80
2023/12/13 05:00:50;;;;;;;17.38;10.23;;;8.80;99.90;;;;;;5055520;28;20410;-79
2023/12/13 05:03:16;;;;;;;14.10;8.80;;;8.90;99.90;;;;;;5082751;28;20055;-80
2023/12/13 05:05:42;;;;;;;27.65;11.77;;;8.80;99.90;;;;;;5075640;28;20139;-81
2023/12/13 05:08:12;;;;;;;21.40;10.80;;;8.90;99.90;;;;;;5098696;28;20032;-81
2023/12/13 05:10:43;;;;;;;14.90;9.45;;;8.90;99.90;;;;;;5070339;28;20039;-80
2023/12/13 05:13:10;;;;;;;20.27;10.68;;;8.80;99.90;;;;;;5076782;28;20024;-81
2023/12/13 05:15:36;;;;;;;15.95;9.18;;;8.90;99.90;;;;;;5099612;28;20479;-81
2023/12/13 05:18:02;;;;;;;17.98;10.40;;;8.90;99.90;;;;;;5070543;28;20044;-81
2023/12/13 05:20:29;;;;;;;21.98;11.82;;;8.90;99.90;;;;;;5080082;28;20058;-79
2023/12/13 05:22:55;;;;;;;19.75;10.52;;;8.90;99.90;;;;;;5079309;28;20036;-79
2023/12/13 05:25:21;;;;;;;19.52;10.88;;;8.90;99.90;;;;;;5077009;28;20035;-80
2023/12/13 05:27:48;;;;;;;20.75;11.38;;;8.90;99.90;;;;;;5110791;27;20044;-80
2023/12/13 05:30:14;;;;;;;16.50;9.75;;;8.90;99.90;;;;;;5060759;28;20031;-81
2023/12/13 05:32:41;;;;;;;18.38;10.50;;;8.90;99.90;;;;;;5076746;28;20032;-81
2023/12/13 05:35:08;;;;;;;22.25;10.95;;;8.90;99.90;;;;;;5081602;28;20032;-82
2023/12/13 05:37:34;;;;;;;17.55;9.75;;;8.90;99.90;;;;;;5087340;28;20047;-80
2023/12/13 05:40:00;;;;;;;19.45;9.93;;;8.90;99.90;;;;;;5087256;28;20063;-81
2023/12/13 05:42:26;;;;;;;19.98;10.65;;;8.90;99.90;;;;;;5092162;27;20048;-81
2023/12/13 05:44:53;;;;;;;23.58;11.00;;;8.90;99.90;;;;;;5100334;27;20032;-82
2023/12/13 05:47:19;;;;;;;17.77;10.68;;;8.90;99.90;;;;;;5072175;28;20035;-81
2023/12/13 05:49:45;;;;;;;20.63;10.18;;;8.90;99.90;;;;;;5097588;28;20020;-82
2023/12/13 05:52:12;;;;;;;19.45;10.15;;;8.90;99.90;;;;;;5076024;28;20474;-82
2023/12/13 05:54:38;;;;;;;23.23;11.85;;;8.90;99.90;;;;;;5094887;28;20051;-82
2023/12/13 05:57:05;;;;;;;23.10;12.52;;;8.90;99.90;;;;;;5066608;28;20039;-81
2023/12/13 05:59:31;;;;;;;22.83;11.70;;;8.90;99.90;;;;;;5077233;28;20376;-82
2023/12/13 06:01:57;;;;;;;22.35;11.10;;;8.90;99.90;;;;;;5108446;27;20043;-82
2023/12/13 06:04:24;;;;;;;17.88;10.07;;;8.90;99.90;;;;;;5094003;28;20267;-81
2023/12/13 06:06:51;;;;;;;20.13;10.10;;;8.90;99.90;;;;;;5093297;28;20495;-80
2023/12/13 06:09:18;;;;;;;17.13;9.73;;;8.90;99.90;;;;;;5069249;28;20032;-81
2023/12/13 06:11:44;;;;;;;26.63;13.52;;;8.90;99.90;;;;;;5072643;28;20046;-81
2023/12/13 06:14:10;;;;;;;23.42;11.85;;;8.90;99.90;;;;;;5076158;28;20032;-81
2023/12/13 06:16:37;;;;;;;23.88;12.35;;;8.90;99.90;;;;;;5076118;28;20645;-80
2023/12/13 06:19:03;;;;;;;30.83;14.80;;;8.90;99.90;;;;;;5071136;28;20055;-80
2023/12/13 06:21:29;;;;;;;43.67;20.83;;;8.90;99.90;;;;;;5073947;28;20040;-81
2023/12/13 06:23:56;;;;;;;30.17;16.98;;;8.90;99.90;;;;;;5110335;27;20043;-81
2023/12/13 06:26:22;;;;;;;35.92;18.13;;;8.90;99.90;;;;;;5074008;28;20070;-81
2023/12/13 06:28:48;;;;;;;24.48;13.45;;;8.90;99.90;;;;;;5098165;27;20035;-82
2023/12/13 06:31:15;;;;;;;24.48;13.05;;;8.80;99.90;;;;;;5057723;28;20702;-80
2023/12/13 06:33:41;;;;;;;25.17;11.70;;;8.90;99.90;;;;;;5079949;28;20032;-82
2023/12/13 06:36:07;;;;;;;21.08;10.68;;;8.90;99.90;;;;;;5071915;28;20040;-82
2023/12/13 06:38:34;;;;;;;17.73;10.60;;;8.90;99.90;;;;;;5093751;28;20710;-82
2023/12/13 06:41:00;;;;;;;21.38;11.30;;;8.90;99.90;;;;;;5072756;27;20038;-80
2023/12/13 06:43:26;;;;;;;24.55;12.38;;;8.90;99.90;;;;;;5070486;28;20035;-82
2023/12/13 06:45:53;;;;;;;22.70;11.07;;;8.90;99.90;;;;;;5074022;28;20036;-83
2023/12/13 06:48:19;;;;;;;20.90;10.68;;;8.90;99.90;;;;;;5095541;28;20032;-81
2023/12/13 06:50:47;;;;;;;19.63;10.52;;;8.90;99.90;;;;;;5094201;28;20031;-82
2023/12/13 06:53:14;;;;;;;22.60;10.45;;;9.00;99.90;;;;;;5080473;28;20043;-83
2023/12/13 06:55:40;;;;;;;24.42;12.45;;;8.90;99.90;;;;;;5070857;28;20039;-81
2023/12/13 06:58:06;;;;;;;24.98;11.35;;;8.90;99.90;;;;;;5096289;27;20046;-82
2023/12/13 07:00:34;;;;;;;19.42;10.77;;;8.90;99.90;;;;;;5078988;28;20043;-83
2023/12/13 07:03:01;;;;;;;19.13;10.70;;;8.90;99.90;;;;;;5070025;28;20048;-84
2023/12/13 07:05:28;;;;;;;18.35;10.50;;;8.90;99.90;;;;;;5082345;28;20494;-84
2023/12/13 07:07:54;;;;;;;29.05;12.45;;;8.90;99.90;;;;;;5070501;28;20028;-83
2023/12/13 07:10:26;;;;;;;32.65;14.90;;;9.00;99.90;;;;;;5074771;28;20035;-91
2023/12/13 07:12:53;;;;;;;43.67;22.23;;;9.00;99.90;;;;;;5057168;28;20493;-88
2023/12/13 07:15:19;;;;;;;38.75;19.85;;;9.00;99.90;;;;;;5086092;28;20036;-85
2023/12/13 07:17:45;;;;;;;32.63;16.88;;;9.00;99.90;;;;;;5076174;28;20051;-88
2023/12/13 07:20:12;;;;;;;28.33;14.98;;;9.00;99.90;;;;;;5071669;28;20050;-81
2023/12/13 07:22:39;;;;;;;27.65;13.95;;;9.00;99.90;;;;;;5059823;28;20036;-82
2023/12/13 07:25:06;;;;;;;29.45;14.40;;;9.00;99.90;;;;;;5073396;28;20521;-83
2023/12/13 07:27:33;;;;;;;29.60;13.95;;;9.00;99.90;;;;;;5079374;28;20058;-85
2023/12/13 07:30:00;;;;;;;27.40;13.63;;;9.00;99.90;;;;;;5055636;28;20035;-86
2023/12/13 07:32:27;;;;;;;27.92;15.02;;;9.00;99.90;;;;;;5057629;28;20035;-86
2023/12/13 07:34:53;;;;;;;26.65;13.38;;;9.00;99.90;;;;;;5074363;28;20040;-82
2023/12/13 07:37:20;;;;;;;22.58;11.65;;;9.10;99.90;;;;;;5093424;28;20038;-85
2023/12/13 07:39:46;;;;;;;26.35;13.07;;;9.10;99.90;;;;;;5075219;28;20032;-84
2023/12/13 07:42:12;;;;;;;25.70;12.50;;;9.00;99.90;;;;;;5058255;28;20046;-85
2023/12/13 07:44:39;;;;;;;28.40;13.40;;;9.00;99.90;;;;;;5091898;28;20042;-85
2023/12/13 07:47:06;;;;;;;24.80;12.45;;;9.00;99.90;;;;;;5078290;28;20032;-83
2023/12/13 07:49:32;;;;;;;29.48;15.07;;;9.00;99.90;;;;;;5069472;28;20036;-82
2023/12/13 07:51:58;;;;;;;24.67;13.52;;;9.10;99.90;;;;;;5065292;28;20398;-84
2023/12/13 07:54:25;;;;;;;29.08;14.80;;;9.10;99.90;;;;;;5069825;28;20486;-82
2023/12/13 07:56:53;;;;;;;28.33;15.20;;;9.10;99.90;;;;;;5075114;28;20036;-83
2023/12/13 07:59:19;;;;;;;28.58;15.10;;;9.10;99.90;;;;;;5077008;28;20558;-84
2023/12/13 08:01:46;;;;;;;34.30;16.70;;;9.10;99.90;;;;;;5094296;28;20040;-84
2023/12/13 08:04:12;;;;;;;31.20;15.57;;;9.10;99.90;;;;;;5079141;28;20028;-85
2023/12/13 08:06:39;;;;;;;31.55;15.80;;;9.10;99.90;;;;;;5083110;28;20035;-87
2023/12/13 08:09:09;;;;;;;37.90;18.00;;;9.10;99.90;;;;;;5070723;28;20037;-84
2023/12/13 08:11:36;;;;;;;35.08;19.80;;;9.10;99.90;;;;;;5070328;28;20039;-90
2023/12/13 08:14:03;;;;;;;37.72;20.65;;;9.10;99.90;;;;;;5055736;28;20032;-90
2023/12/13 08:16:29;;;;;;;33.70;18.85;;;9.10;99.90;;;;;;5103482;28;20047;-87
2023/12/13 08:18:56;;;;;;;35.88;17.42;;;9.10;99.90;;;;;;5060286;28;20042;-87
2023/12/13 08:21:23;;;;;;;28.80;14.40;;;9.10;99.90;;;;;;5109801;27;20528;-91
2023/12/13 08:23:50;;;;;;;22.65;11.63;;;9.10;99.90;;;;;;5075100;28;20474;-92
2023/12/13 08:26:17;;;;;;;21.98;11.40;;;9.10;99.90;;;;;;5078512;28;20040;-91
2023/12/13 08:28:43;;;;;;;24.80;11.20;;;9.10;99.90;;;;;;5070378;28;20264;-89
2023/12/13 08:31:11;;;;;;;16.88;9.45;;;9.10;99.90;;;;;;5072094;28;20039;-88
2023/12/13 08:33:44;;;;;;;18.08;9.38;;;9.10;99.90;;;;;;5085444;28;20043;-89
2023/12/13 08:36:12;;;;;;;21.63;11.55;;;9.10;99.90;;;;;;5081931;28;20035;-89
2023/12/13 08:38:40;;;;;;;19.92;10.88;;;9.10;99.90;;;;;;5112236;27;20035;-89
2023/12/13 08:41:13;;;;;;;20.17;10.23;;;9.20;99.90;;;;;;5073061;28;20031;-85
2023/12/13 08:43:39;;;;;;;;;;;9.20;99.90;;;;;;5073663;28;20032;-88
2023/12/13 08:46:05;;;;;;;16.90;8.07;;;9.20;99.90;;;;;;5073972;28;20397;-82
2023/12/13 08:48:31;;;;;;;14.93;8.13;;;9.20;99.90;;;;;;5076679;28;20024;-83
2023/12/13 08:50:58;;;;;;;17.55;8.52;;;9.20;99.90;;;;;;5083064;28;20032;-85
2023/12/13 08:53:24;;;;;;;18.75;9.05;;;9.20;99.90;;;;;;5060058;28;20036;-87
2023/12/13 08:55:51;;;;;;;18.70;9.77;;;9.30;99.90;;;;;;5094057;27;20602;-85
2023/12/13 08:58:17;;;;;;;19.88;9.48;;;9.30;99.90;;;;;;5082152;28;20035;-85
2023/12/13 09:00:44;;;;;;;22.83;10.20;;;9.30;99.90;;;;;;5057067;28;20042;-83
2023/12/13 09:03:10;;;;;;;19.83;10.60;;;9.30;99.90;;;;;;5082548;28;20043;-83
2023/12/13 09:05:37;;;;;;;22.08;11.73;;;9.30;99.90;;;;;;5072266;28;20036;-83
2023/12/13 09:08:07;;;;;;;23.63;12.18;;;9.30;99.90;;;;;;5083273;28;20497;-83
2023/12/13 09:10:34;;;;;;;21.55;11.85;;;9.30;99.90;;;;;;5073781;28;20663;-83
2023/12/13 09:13:02;;;;;;;19.95;11.88;;;9.30;99.90;;;;;;5077047;28;20596;-83
2023/12/13 09:15:29;;;;;;;24.42;11.30;;;9.30;99.90;;;;;;5079040;28;20061;-83
2023/12/13 09:17:55;;;;;;;24.02;11.65;;;9.30;99.90;;;;;;5074483;28;20032;-81
2023/12/13 09:20:22;;;;;;;20.02;10.77;;;9.30;99.90;;;;;;5057010;28;20035;-82
2023/12/13 09:22:48;;;;;;;20.77;10.82;;;9.30;99.90;;;;;;5084658;28;20821;-82
2023/12/13 09:25:15;;;;;;;29.63;11.73;;;9.40;99.90;;;;;;5070575;28;20039;-83
2023/12/13 09:27:42;;;;;;;25.70;11.35;;;9.40;99.90;;;;;;5099383;28;20040;-83
2023/12/13 09:30:09;;;;;;;29.30;12.15;;;9.40;99.90;;;;;;5095778;27;20075;-81
2023/12/13 09:32:35;;;;;;;26.23;12.18;;;9.40;99.90;;;;;;5076836;28;20047;-84
2023/12/13 09:35:04;;;;;;;22.88;11.10;;;9.50;99.90;;;;;;5079159;28;20498;-81
2023/12/13 09:37:31;;;;;;;22.83;11.30;;;9.50;99.90;;;;;;5071909;28;20059;-82
2023/12/13 09:39:59;;;;;;;23.02;11.05;;;9.50;99.90;;;;;;5072705;28;20047;-84
2023/12/13 09:42:25;;;;;;;23.40;12.00;;;9.50;99.90;;;;;;5098974;27;20043;-84
2023/12/13 09:44:53;;;;;;;20.48;10.45;;;9.60;99.90;;;;;;5082814;28;20028;-82
2023/12/13 09:47:21;;;;;;;21.27;11.15;;;9.60;99.90;;;;;;5075303;28;20028;-85
2023/12/13 09:49:49;;;;;;;22.40;12.35;;;9.60;99.90;;;;;;5073104;28;20034;-85
2023/12/13 09:52:19;;;;;;;26.13;11.70;;;9.60;99.90;;;;;;5055704;27;20032;-82
2023/12/13 09:54:47;;;;;;;21.98;11.48;;;9.60;99.90;;;;;;5057325;28;20040;-82
2023/12/13 09:57:15;;;;;;;21.75;11.77;;;9.60;99.90;;;;;;5074352;28;20032;-83
2023/12/13 09:59:41;;;;;;;20.58;10.55;;;9.60;99.90;;;;;;5072427;28;20043;-82
2023/12/13 10:02:16;;;;;;;30.35;14.60;;;9.70;99.90;;;;;;5069946;28;20028;-82
2023/12/13 10:04:44;;;;;;;26.20;12.52;;;9.70;99.90;;;;;;5080194;28;20031;-83
2023/12/13 10:07:11;;;;;;;17.83;9.45;;;9.70;99.90;;;;;;5056858;28;20512;-80
2023/12/13 10:09:38;;;;;;;25.98;11.57;;;9.70;99.90;;;;;;5065254;28;20028;-82
2023/12/13 10:12:05;;;;;;;26.15;12.23;;;9.70;99.90;;;;;;5073362;28;20619;-81
2023/12/13 10:14:34;;;;;;;21.83;11.02;;;9.70;99.90;;;;;;5058907;28;20501;-82
2023/12/13 10:17:01;;;;;;;25.75;12.40;;;9.70;99.90;;;;;;5092004;28;20054;-83
2023/12/13 10:19:27;;;;;;;25.65;11.45;;;9.70;99.90;;;;;;5079565;28;20042;-83
2023/12/13 10:21:53;;;;;;;25.92;10.90;;;9.70;99.90;;;;;;5096739;28;20044;-84
2023/12/13 10:24:24;;;;;;;24.23;12.48;;;9.80;99.90;;;;;;5074822;28;20039;-84
2023/12/13 10:26:51;;;;;;;21.63;10.98;;;9.80;99.90;;;;;;5088741;28;20043;-84
2023/12/13 10:29:21;;;;;;;23.15;11.18;;;9.80;99.90;;;;;;5088123;28;20047;-83
2023/12/13 10:31:48;;;;;;;28.67;12.55;;;9.80;99.90;;;;;;5109308;27;20394;-82
2023/12/13 10:34:15;;;;;;;23.60;12.38;;;9.80;99.90;;;;;;5110359;27;20434;-83
2023/12/13 10:36:42;;;;;;;24.50;12.65;;;9.70;99.90;;;;;;5071879;28;20028;-83
2023/12/13 10:39:13;;;;;;;28.58;13.48;;;9.70;99.90;;;;;;5069598;28;20082;-81
2023/12/13 10:41:44;;;;;;;34.08;16.20;;;9.70;99.90;;;;;;5077834;28;20040;-85
2023/12/13 10:44:18;;;;;;;25.48;14.45;;;9.70;99.90;;;;;;5073307;28;20032;-82
2023/12/13 10:46:46;;;;;;;28.58;13.85;;;9.70;99.90;;;;;;5072755;28;20410;-83
2023/12/13 10:49:17;;;;;;;30.40;13.55;;;9.70;99.90;;;;;;5071860;28;20414;-83
2023/12/13 10:51:47;;;;;;;21.48;11.23;;;9.70;99.90;;;;;;5081911;28;20039;-80
2023/12/13 10:54:14;;;;;;;25.67;12.77;;;9.70;99.90;;;;;;5069528;28;20032;-84
2023/12/13 10:56:41;;;;;;;26.60;11.88;;;9.70;99.90;;;;;;5058303;28;20034;-82
2023/12/13 10:59:09;;;;;;;25.38;12.30;;;9.70;99.90;;;;;;5055762;28;20497;-82
2023/12/13 11:01:38;;;;;;;40.10;18.23;;;9.70;99.90;;;;;;5099604;28;20039;-82
2023/12/13 11:04:08;;;;;;;25.05;13.30;;;9.80;99.90;;;;;;5072234;28;20042;-85
2023/12/13 11:06:38;;;;;;;20.95;12.05;;;9.70;99.90;;;;;;5071886;28;20031;-87
2023/12/13 11:09:15;;;;;;;25.10;13.82;;;9.70;99.90;;;;;;5080656;28;20765;-85
2023/12/13 11:11:42;;;;;;;24.65;13.95;;;9.70;99.90;;;;;;5076983;28;20039;-87
2023/12/13 11:14:10;;;;;;;25.50;13.57;;;9.70;99.90;;;;;;5072717;28;20039;-88
2023/12/13 11:16:47;;;;;;;22.42;12.23;;;9.70;99.90;;;;;;5072086;28;20034;-85
2023/12/13 11:19:18;;;;;;;19.10;11.23;;;9.80;99.90;;;;;;5056697;28;20043;-84
2023/12/13 11:21:52;;;;;;;23.48;11.77;;;9.80;99.90;;;;;;5073779;28;20040;-80
2023/12/13 11:24:26;;;;;;;22.90;10.00;;;9.80;99.90;;;;;;5074839;28;20478;-83
2023/12/13 11:26:54;;;;;;;19.38;9.73;;;9.70;99.90;;;;;;5078343;28;20039;-82
2023/12/13 11:29:23;;;;;;;19.15;10.73;;;9.70;99.90;;;;;;5060858;28;20040;-84
2023/12/13 11:32:03;;;;;;;28.92;14.25;;;9.70;99.90;;;;;;5074243;28;20032;-84
2023/12/13 11:34:45;;;;;;;31.67;15.85;;;9.70;99.90;;;;;;5079272;28;20047;-85
2023/12/13 11:37:13;;;;;;;28.33;13.82;;;9.70;99.90;;;;;;5057260;28;20043;-84
2023/12/13 11:39:42;;;;;;;21.90;10.57;;;9.70;99.90;;;;;;5068513;28;20044;-85
2023/12/13 11:42:10;;;;;;;15.60;8.70;;;9.70;99.90;;;;;;5090532;27;20032;-85
2023/12/13 11:44:38;;;;;;;16.63;7.85;;;9.70;99.90;;;;;;5091818;28;20068;-85
2023/12/13 11:47:12;;;;;;;11.75;5.95;;;9.70;99.90;;;;;;5076654;28;20035;-83
2023/12/13 11:49:40;;;;;;;9.85;5.22;;;9.70;99.90;;;;;;5069489;28;20046;-86
2023/12/13 11:52:07;;;;;;;10.55;4.43;;;9.60;99.90;;;;;;5068870;28;20576;-81
2023/12/13 11:54:37;;;;;;;8.45;4.68;;;9.60;99.90;;;;;;5101142;28;20032;-83
2023/12/13 11:57:18;;;;;;;14.43;8.20;;;9.60;99.90;;;;;;5067798;28;20028;-85
2023/12/13 11:59:49;;;;;;;13.23;6.80;;;9.60;99.90;;;;;;5077101;28;20052;-85
2023/12/13 12:02:17;;;;;;;11.95;6.57;;;9.50;99.90;;;;;;5069791;28;20046;-85
2023/12/13 12:04:44;;;;;;;10.52;5.10;;;9.50;99.90;;;;;;5063720;28;20027;-84
2023/12/13 12:07:15;;;;;;;10.75;4.97;;;9.40;99.90;;;;;;5094588;28;20054;-84
2023/12/13 12:09:49;;;;;;;9.20;4.80;;;9.40;99.90;;;;;;5058890;28;20039;-86
2023/12/13 12:12:16;;;;;;;9.13;4.85;;;9.30;99.90;;;;;;5076998;28;20044;-87
2023/12/13 12:14:45;;;;;;;11.40;5.00;;;9.30;99.90;;;;;;5053279;28;20040;-82
2023/12/13 12:17:12;;;;;;;8.63;4.78;;;9.30;99.90;;;;;;5093701;28;20028;-84
2023/12/13 12:19:40;;;;;;;9.60;4.72;;;9.30;99.90;;;;;;5086821;28;20051;-84
2023/12/13 12:22:06;;;;;;;8.43;4.47;;;9.20;99.90;;;;;;5052807;28;20035;-85
2023/12/13 12:24:38;;;;;;;10.15;5.07;;;9.20;99.90;;;;;;5090573;28;20040;-87
2023/12/13 12:27:12;;;;;;;7.57;4.38;;;9.20;99.90;;;;;;5075358;28;20352;-85
2023/12/13 12:29:41;;;;;;;9.32;4.70;;;9.20;99.90;;;;;;5079460;28;20035;-84
2023/12/13 12:32:11;;;;;;;6.03;3.35;;;9.20;99.90;;;;;;5046721;28;20039;-86
2023/12/13 12:34:40;;;;;;;6.60;3.75;;;9.20;99.90;;;;;;5076311;28;20545;-85
2023/12/13 12:37:07;;;;;;;9.60;4.50;;;9.20;99.90;;;;;;5075091;28;20397;-83
2023/12/13 12:39:34;;;;;;;12.10;5.43;;;9.10;99.90;;;;;;5076413;28;20032;-86
2023/12/13 12:42:03;;;;;;;10.98;4.68;;;9.10;99.90;;;;;;5099572;27;20043;-86